Time;durP1;ratioP1;P1;durP2;ratioP2;P2;SDS_P1;SDS_P2;PMS_P1;PMS_P2;Temp;Humidity;BMP_temperature;BMP_pressure;BME280_temperature;BME280_humidity;BME280_pressure;Samples;Min_cycle;Max_cycle;Signal;HPM_P1;HPM_P2
2022/12/11 00:02:17;;;;;;;7.73;3.10;;;;;;;18.49;51.49;99801.19;5053250;28;20221;-64
2022/12/11 00:04:42;;;;;;;4.03;2.77;;;;;;;18.60;51.42;99801.28;5059745;28;20453;-64
2022/12/11 00:07:08;;;;;;;5.40;3.03;;;;;;;18.59;51.40;99799.66;5054311;28;20164;-64
2022/12/11 00:09:33;;;;;;;4.37;2.80;;;;;;;18.55;51.27;99804.50;5058840;28;20171;-64
2022/12/11 00:11:59;;;;;;;5.10;2.87;;;;;;;18.53;51.48;99799.22;5073509;28;20527;-64
2022/12/11 00:14:24;;;;;;;6.70;3.30;;;;;;;18.51;51.36;99803.69;5059386;28;20172;-64
2022/12/11 00:16:49;;;;;;;4.20;2.90;;;;;;;18.51;51.68;99798.75;5053117;28;20222;-64
2022/12/11 00:19:15;;;;;;;5.07;2.80;;;;;;;18.55;51.42;99799.63;5055340;28;20183;-64
2022/12/11 00:21:41;;;;;;;3.87;2.83;;;;;;;18.49;51.40;99795.50;5071930;28;20830;-64
2022/12/11 00:24:06;;;;;;;6.40;3.47;;;;;;;18.51;51.37;99793.03;5054941;28;20188;-64
2022/12/11 00:26:32;;;;;;;4.53;3.13;;;;;;;18.54;51.31;99802.88;5051862;28;20949;-64
2022/12/11 00:28:57;;;;;;;4.67;2.80;;;;;;;18.50;51.43;99807.72;5069883;28;20228;-64
2022/12/11 00:31:23;;;;;;;4.60;2.70;;;;;;;18.55;51.54;99801.66;5068838;28;20207;-64
2022/12/11 00:33:49;;;;;;;6.87;2.87;;;;;;;18.52;51.60;99802.44;5069924;28;20210;-64
2022/12/11 00:36:21;;;;;;;5.97;3.33;;;;;;;18.52;51.29;99802.44;5071206;28;20596;-64
2022/12/11 00:38:47;;;;;;;5.90;3.03;;;;;;;18.49;51.68;99806.91;5069425;28;20195;-64
2022/12/11 00:41:13;;;;;;;5.23;2.80;;;;;;;18.55;51.44;99804.50;5052885;28;20395;-64
2022/12/11 00:43:38;;;;;;;4.10;2.77;;;;;;;18.51;51.55;99801.63;5052295;28;20886;-64
2022/12/11 00:46:04;;;;;;;4.30;2.53;;;;;;;18.46;51.43;99801.97;5055174;28;20238;-64
2022/12/11 00:48:29;;;;;;;5.60;2.80;;;;;;;18.51;51.50;99812.25;5052351;28;20165;-64
2022/12/11 00:50:55;;;;;;;5.90;2.93;;;;;;;18.51;51.40;99810.19;5054954;28;20206;-64
2022/12/11 00:53:20;;;;;;;5.67;3.07;;;;;;;18.51;51.17;99809.38;5052474;28;20171;-64
2022/12/11 00:55:45;;;;;;;4.70;2.70;;;;;;;18.46;51.74;99813.41;5052490;28;20191;-64
2022/12/11 00:58:11;;;;;;;4.30;2.67;;;;;;;18.49;51.67;99806.91;5071374;28;20284;-64
2022/12/11 01:00:37;;;;;;;5.63;3.77;;;;;;;18.50;51.51;99814.28;5054927;28;20651;-64
2022/12/11 01:03:02;;;;;;;5.57;3.03;;;;;;;18.48;51.51;99822.44;5055010;28;20176;-64
2022/12/11 01:05:28;;;;;;;4.70;2.63;;;;;;;18.54;51.56;99815.13;5070090;28;20561;-64
2022/12/11 01:07:53;;;;;;;5.33;3.00;;;;;;;18.51;51.59;99815.91;5072167;28;20171;-64
2022/12/11 01:10:25;;;;;;;4.50;2.93;;;;;;;18.47;51.40;99820.75;5072072;28;20183;-64
2022/12/11 01:12:58;;;;;;;6.00;2.80;;;;;;;18.42;51.48;99832.56;5072236;28;20637;-64
2022/12/11 01:15:28;;;;;;;3.30;2.50;;;;;;;18.44;51.61;99838.72;5068651;28;20789;-64
2022/12/11 01:17:54;;;;;;;5.50;3.17;;;;;;;18.45;51.73;99828.91;5072144;28;20915;-64
2022/12/11 01:20:20;;;;;;;4.50;2.87;;;;;;;18.40;51.69;99835.00;5064506;28;20469;-64
2022/12/11 01:22:45;;;;;;;5.20;3.20;;;;;;;18.45;51.59;99836.66;5051901;28;20262;-64
2022/12/11 01:25:10;;;;;;;4.47;2.83;;;;;;;18.45;51.51;99840.34;5051834;28;20426;-64
2022/12/11 01:27:36;;;;;;;6.50;2.87;;;;;;;18.48;51.58;99848.16;5058898;28;20175;-64
2022/12/11 01:30:04;;;;;;;4.40;2.50;;;;;;;18.50;51.51;99837.16;5060233;28;20183;-64
2022/12/11 01:32:29;;;;;;;5.20;3.00;;;;;;;18.46;51.60;99841.19;5044062;28;20461;-64
2022/12/11 01:34:55;;;;;;;4.33;2.97;;;;;;;18.47;51.44;99849.34;5064890;28;20469;-64
2022/12/11 01:37:20;;;;;;;5.67;3.17;;;;;;;18.47;51.60;99854.25;5050679;28;20249;-64
2022/12/11 01:39:45;;;;;;;4.30;2.73;;;;;;;18.47;51.65;99846.50;5058877;28;20179;-64
2022/12/11 01:42:16;;;;;;;4.40;3.00;;;;;;;18.47;51.55;99849.34;5055769;28;20218;-64
2022/12/11 01:44:41;;;;;;;4.80;3.27;;;;;;;18.48;51.19;99853.88;5050553;28;20273;-64
2022/12/11 01:47:07;;;;;;;3.93;3.00;;;;;;;18.40;51.61;99854.16;5052944;28;20917;-64
2022/12/11 01:49:32;;;;;;;6.10;2.57;;;;;;;18.40;51.65;99846.41;5050661;28;20503;-64
2022/12/11 01:52:06;;;;;;;5.13;3.30;;;;;;;18.41;51.66;99859.50;5051333;28;20681;-64
2022/12/11 01:54:32;;;;;;;5.87;3.30;;;;;;;18.39;51.86;99859.06;5067302;28;20721;-64
2022/12/11 01:57:00;;;;;;;3.80;2.63;;;;;;;18.45;51.21;99860.38;5071484;28;20421;-64
2022/12/11 01:59:26;;;;;;;5.40;3.40;;;;;;;18.40;51.52;99859.88;5044329;28;20226;-64
2022/12/11 02:02:18;;;;;;;5.30;2.70;;;;;;;18.42;51.73;99854.63;5036172;28;20917;-64
2022/12/11 02:04:44;;;;;;;4.43;2.70;;;;;;;18.47;51.50;99854.25;5058884;28;20461;-64
2022/12/11 02:07:09;;;;;;;3.53;2.30;;;;;;;18.40;51.73;99859.88;5067088;28;20515;-64
2022/12/11 02:09:35;;;;;;;7.03;2.70;;;;;;;18.41;51.54;99859.50;5071039;28;20175;-64
2022/12/11 02:12:12;;;;;;;5.40;2.97;;;;;;;18.38;51.49;99854.56;5070954;28;20637;-64
2022/12/11 02:14:42;;;;;;;4.00;2.50;;;;;;;18.43;51.68;99867.69;5069746;28;20186;-64
2022/12/11 02:17:14;;;;;;;5.73;3.17;;;;;;;18.43;51.66;99877.09;5053233;28;20421;-64
2022/12/11 02:20:02;;;;;;;3.80;2.70;;;;;;;18.43;51.37;99876.25;5068227;28;20428;-64
2022/12/11 02:22:39;;;;;;;5.27;3.00;;;;;;;18.42;51.54;99878.28;5052879;28;20780;-64
2022/12/11 02:25:26;;;;;;;3.63;2.43;;;;;;;18.42;51.38;99880.34;5052765;28;20760;-64
2022/12/11 02:28:00;;;;;;;6.73;3.00;;;;;;;18.37;51.40;99881.50;5067803;28;20436;-64
2022/12/11 02:30:26;;;;;;;4.70;2.83;;;;;;;18.39;51.49;99873.38;5036801;28;20919;-64
2022/12/11 02:32:56;;;;;;;4.47;2.60;;;;;;;18.42;51.30;99877.47;5065342;28;20405;-64
2022/12/11 02:35:41;;;;;;;5.07;2.77;;;;;;;18.36;51.46;99871.28;5068505;28;20232;-64
2022/12/11 02:38:13;;;;;;;4.50;2.80;;;;;;;18.35;51.54;99863.91;5036801;28;20763;-64
2022/12/11 02:40:39;;;;;;;4.17;2.80;;;;;;;18.42;51.44;99864.00;5034345;28;20425;-64
2022/12/11 02:43:06;;;;;;;4.70;2.30;;;;;;;18.42;51.77;99871.75;5034724;28;20426;-64
2022/12/11 02:45:31;;;;;;;4.20;2.50;;;;;;;18.39;51.44;99863.94;5016440;28;20536;-64
2022/12/11 02:47:57;;;;;;;5.53;2.90;;;;;;;18.39;51.48;99864.78;5055634;28;20425;-64
2022/12/11 02:50:23;;;;;;;4.67;2.40;;;;;;;18.41;51.70;99870.13;5032610;28;20258;-64
2022/12/11 02:52:49;;;;;;;3.33;2.43;;;;;;;18.34;51.52;99862.28;5032586;28;20783;-64
2022/12/11 02:55:15;;;;;;;4.80;3.30;;;;;;;18.34;51.62;99868.00;5032640;28;20619;-64
2022/12/11 02:57:50;;;;;;;3.63;2.80;;;;;;;18.40;51.52;99865.59;5032943;28;20486;-64
2022/12/11 03:00:17;;;;;;;4.33;2.73;;;;;;;18.34;51.70;99867.16;5050172;28;20175;-64
2022/12/11 03:02:42;;;;;;;3.73;2.70;;;;;;;18.37;51.63;99869.25;5029877;28;20950;-64
2022/12/11 03:05:09;;;;;;;3.90;2.43;;;;;;;18.37;51.42;99869.25;5047279;28;20488;-64
2022/12/11 03:07:36;;;;;;;4.73;2.43;;;;;;;18.33;51.62;99863.50;5036505;28;20199;-64
2022/12/11 03:10:03;;;;;;;3.93;2.40;;;;;;;18.33;51.49;99866.34;5048697;28;20435;-64
2022/12/11 03:12:32;;;;;;;4.17;2.80;;;;;;;18.36;51.52;99862.69;5034208;28;20482;-64
2022/12/11 03:14:59;;;;;;;4.60;3.03;;;;;;;18.33;51.69;99866.34;5034297;28;20415;-64
2022/12/11 03:17:56;;;;;;;4.10;2.67;;;;;;;18.31;51.75;99860.16;5031101;28;20442;-64
2022/12/11 03:20:35;;;;;;;6.57;2.87;;;;;;;18.27;51.65;99859.28;5054207;28;20996;-64
2022/12/11 03:23:21;;;;;;;3.50;2.10;;;;;;;18.29;51.78;99859.75;5054177;28;20431;-64
2022/12/11 03:25:54;;;;;;;3.70;2.53;;;;;;;18.29;51.89;99868.31;5027054;28;20446;-64
2022/12/11 03:28:48;;;;;;;4.03;2.70;;;;;;;18.33;51.75;99872.06;5045210;28;20770;-64
2022/12/11 03:31:37;;;;;;;5.60;3.37;;;;;;;18.28;51.79;99868.69;5024181;28;20468;-64
2022/12/11 03:34:08;;;;;;;3.97;2.60;;;;;;;18.29;51.69;99864.63;5037887;28;20406;-64
2022/12/11 03:36:35;;;;;;;3.60;2.37;;;;;;;18.33;51.47;99857.78;5016746;28;20501;-64
2022/12/11 03:39:11;;;;;;;5.17;2.60;;;;;;;18.33;51.58;99869.22;5036010;28;20497;-64
2022/12/11 03:41:37;;;;;;;4.90;2.80;;;;;;;18.36;51.73;99865.56;5035522;28;20446;-64
2022/12/11 03:44:02;;;;;;;3.73;2.60;;;;;;;18.36;51.40;99868.41;5033633;28;20421;-64
2022/12/11 03:46:33;;;;;;;4.17;2.80;;;;;;;18.36;51.80;99871.28;5022731;28;20187;-64
2022/12/11 03:49:01;;;;;;;4.33;2.50;;;;;;;18.35;51.59;99871.66;5035693;28;20655;-64
2022/12/11 03:51:28;;;;;;;3.37;2.10;;;;;;;18.27;51.84;99862.16;5043376;28;20533;-64
2022/12/11 03:53:53;;;;;;;3.63;2.63;;;;;;;18.30;51.54;99871.97;5026062;28;20450;-64
2022/12/11 03:56:18;;;;;;;5.20;3.00;;;;;;;18.26;51.70;99862.56;5019088;28;20461;-64
2022/12/11 03:58:44;;;;;;;6.80;3.03;;;;;;;18.30;51.47;99864.22;5038095;28;20239;-64
2022/12/11 04:01:10;;;;;;;3.50;2.50;;;;;;;18.28;51.81;99868.69;5053525;28;20226;-64
2022/12/11 04:03:35;;;;;;;4.00;2.70;;;;;;;18.28;51.65;99858.09;5052526;28;20176;-64
2022/12/11 04:06:01;;;;;;;5.13;2.67;;;;;;;18.30;51.66;99855.66;5041420;28;20641;-64
2022/12/11 04:08:26;;;;;;;4.93;2.80;;;;;;;18.33;51.40;99859.81;5040209;28;20175;-64
2022/12/11 04:11:33;;;;;;;3.93;2.30;;;;;;;18.37;51.56;99852.91;5048123;28;20202;-64
2022/12/11 04:13:37;;;;;;;3.17;2.33;;;;;;;18.37;51.52;99854.97;5042530;28;20198;-64
2022/12/11 04:16:03;;;;;;;3.70;2.77;;;;;;;18.31;51.28;99859.34;5033617;28;20450;-64
2022/12/11 04:24:14;;;;;;;3.60;2.67;;;;;;;18.38;51.51;99853.75;5041847;28;20809;-64
2022/12/11 04:26:43;;;;;;;4.27;2.70;;;;;;;18.35;51.38;99849.63;5044334;28;20525;-64
2022/12/11 04:29:09;;;;;;;3.87;2.43;;;;;;;18.39;51.38;99847.66;5052631;28;20881;-64
2022/12/11 04:31:34;;;;;;;4.80;3.03;;;;;;;18.35;51.56;99843.91;5040185;28;20470;-64
2022/12/11 04:34:00;;;;;;;4.27;2.60;;;;;;;18.30;51.48;99847.09;5033030;28;20176;-64
2022/12/11 04:36:25;;;;;;;4.90;2.50;;;;;;;18.35;51.54;99840.22;5032834;28;20172;-64
2022/12/11 04:38:51;;;;;;;3.97;2.97;;;;;;;18.32;51.58;99847.53;5049078;28;20528;-64
2022/12/11 04:41:16;;;;;;;3.73;2.50;;;;;;;18.36;51.52;99842.69;5032786;28;20195;-64
2022/12/11 04:43:44;;;;;;;3.33;1.87;;;;;;;18.34;51.71;99850.84;5045443;28;20210;-64
2022/12/11 04:46:17;;;;;;;3.77;2.57;;;;;;;18.40;51.30;99843.56;5037857;28;20243;-64
2022/12/11 04:48:43;;;;;;;4.37;2.60;;;;;;;18.31;51.93;99842.22;5032741;28;20411;-64
2022/12/11 04:51:08;;;;;;;3.43;2.37;;;;;;;18.33;51.46;99837.78;5014762;28;20957;-64
2022/12/11 04:53:34;;;;;;;3.70;2.53;;;;;;;18.31;51.46;99840.16;5032462;28;20263;-64
2022/12/11 04:55:59;;;;;;;4.13;2.37;;;;;;;18.39;51.47;99839.06;5034393;28;20271;-64
2022/12/11 04:58:25;;;;;;;3.47;2.53;;;;;;;18.33;51.60;99846.34;5057686;28;20721;-64
2022/12/11 05:00:50;;;;;;;3.70;2.70;;;;;;;18.35;51.43;99854.50;5072138;28;20168;-64
2022/12/11 05:03:16;;;;;;;3.80;2.70;;;;;;;18.36;51.49;99848.41;5069701;28;20202;-64
2022/12/11 05:05:47;;;;;;;3.03;2.47;;;;;;;18.35;51.41;99838.19;5052029;28;20674;-64
2022/12/11 05:08:12;;;;;;;3.00;2.10;;;;;;;18.34;51.64;99847.16;5052376;28;20183;-64
2022/12/11 05:10:38;;;;;;;4.30;2.50;;;;;;;18.36;51.41;99845.56;5071010;28;20472;-64
2022/12/11 05:13:03;;;;;;;3.27;2.23;;;;;;;18.28;51.43;99842.97;5072043;28;20186;-64
2022/12/11 05:15:29;;;;;;;4.10;2.43;;;;;;;18.34;51.74;99833.69;5062623;28;20266;-64
2022/12/11 05:17:54;;;;;;;3.63;2.40;;;;;;;18.36;51.45;99830.47;5052067;28;20183;-64
2022/12/11 05:20:19;;;;;;;3.30;2.23;;;;;;;18.35;51.77;99829.63;5052238;28;20168;-64
2022/12/11 05:22:45;;;;;;;3.73;2.57;;;;;;;18.32;51.59;99820.97;5053828;28;20180;-64
2022/12/11 05:25:10;;;;;;;4.00;2.70;;;;;;;18.39;51.22;99819.06;5051812;28;20188;-64
2022/12/11 05:27:36;;;;;;;3.83;2.27;;;;;;;18.36;51.29;99808.41;5058867;28;20191;-64
2022/12/11 05:30:02;;;;;;;3.70;2.77;;;;;;;18.36;51.31;99807.59;5068040;28;20180;-64
2022/12/11 05:32:27;;;;;;;4.67;2.83;;;;;;;18.33;51.57;99806.34;5071554;28;20277;-64
2022/12/11 05:34:53;;;;;;;4.70;2.57;;;;;;;18.30;51.84;99800.53;5053705;28;20170;-64
2022/12/11 05:37:18;;;;;;;4.67;2.63;;;;;;;18.30;51.48;99795.66;5071439;28;20237;-64
2022/12/11 05:39:44;;;;;;;3.60;2.43;;;;;;;18.29;51.62;99788.31;5064227;28;20233;-64
2022/12/11 05:42:09;;;;;;;3.97;2.50;;;;;;;18.29;51.62;99788.31;5051425;28;20268;-64
2022/12/11 05:44:34;;;;;;;3.60;2.50;;;;;;;18.35;51.66;99795.34;5067722;28;20206;-64
2022/12/11 05:47:00;;;;;;;3.37;2.30;;;;;;;18.38;51.42;99794.56;5051991;28;20222;-64
2022/12/11 05:49:25;;;;;;;3.23;2.30;;;;;;;18.38;51.30;99788.00;5051403;28;20237;-64
2022/12/11 05:51:51;;;;;;;3.50;2.57;;;;;;;18.34;51.57;99785.13;5062310;28;20321;-64
2022/12/11 05:54:16;;;;;;;5.37;2.50;;;;;;;18.36;51.16;99779.03;5071290;28;20171;-64
2022/12/11 05:56:42;;;;;;;4.50;2.97;;;;;;;18.37;51.44;99784.31;5068687;28;20183;-64
2022/12/11 05:59:07;;;;;;;3.73;2.90;;;;;;;18.37;51.67;99786.38;5070673;28;20226;-64
2022/12/11 06:01:34;;;;;;;5.00;3.20;;;;;;;18.33;51.40;99783.47;5061412;28;20187;-64
2022/12/11 06:03:59;;;;;;;4.20;2.77;;;;;;;18.35;51.45;99781.03;5050855;28;20677;-64
2022/12/11 06:06:25;;;;;;;3.87;2.57;;;;;;;18.36;51.32;99776.97;5068727;28;20573;-64
2022/12/11 06:08:54;;;;;;;3.70;2.80;;;;;;;18.36;51.42;99785.53;5054874;28;20750;-64
2022/12/11 06:11:22;;;;;;;3.60;2.20;;;;;;;18.37;51.52;99792.09;5070767;28;20199;-64
2022/12/11 06:13:47;;;;;;;3.67;2.37;;;;;;;18.36;51.31;99781.88;5069083;28;20774;-64
2022/12/11 06:16:13;;;;;;;3.67;2.47;;;;;;;18.38;51.18;99770.88;5052990;28;20475;-64
2022/12/11 06:18:40;;;;;;;4.17;2.60;;;;;;;18.40;51.69;99782.72;5069248;28;20191;-64
2022/12/11 06:21:13;;;;;;;4.03;2.57;;;;;;;18.37;51.30;99780.66;5050804;28;20167;-64
2022/12/11 06:23:40;;;;;;;3.00;2.30;;;;;;;18.41;51.16;99782.31;5050994;28;20421;-64
2022/12/11 06:26:05;;;;;;;3.17;2.20;;;;;;;18.41;51.52;99779.47;5064149;28;20458;-64
2022/12/11 06:28:31;;;;;;;3.37;2.47;;;;;;;18.41;51.37;99781.53;5070314;28;20482;-64
2022/12/11 06:31:00;;;;;;;3.80;2.50;;;;;;;18.44;51.06;99778.69;5066670;28;20234;-65
2022/12/11 06:33:25;;;;;;;3.20;2.20;;;;;;;18.40;51.46;99785.56;5070430;28;20229;-64
2022/12/11 06:35:51;;;;;;;5.30;2.20;;;;;;;18.40;51.34;99777.00;5069955;28;20402;-64
2022/12/11 06:38:16;;;;;;;5.23;2.60;;;;;;;18.31;51.76;99777.28;5054380;28;20191;-64
2022/12/11 06:40:42;;;;;;;3.57;2.30;;;;;;;18.33;51.39;99780.63;5051804;28;20155;-64
2022/12/11 06:43:07;;;;;;;3.43;2.60;;;;;;;18.37;51.65;99780.66;5059811;28;20218;-65
2022/12/11 06:45:33;;;;;;;3.00;2.30;;;;;;;18.41;51.37;99779.47;5073519;28;20205;-64
2022/12/11 06:47:58;;;;;;;3.80;2.37;;;;;;;18.39;51.56;99784.75;5074804;28;20191;-64
2022/12/11 06:50:23;;;;;;;3.10;2.30;;;;;;;18.36;51.30;99776.97;5064253;28;20235;-64
2022/12/11 06:52:49;;;;;;;4.87;2.60;;;;;;;18.36;51.24;99791.25;5074420;28;20246;-64
2022/12/11 06:55:14;;;;;;;4.73;3.20;;;;;;;18.40;51.79;99783.53;5067651;28;20607;-64
2022/12/11 06:57:40;;;;;;;3.70;2.53;;;;;;;18.40;51.42;99786.41;5062072;28;20233;-64
2022/12/11 07:00:06;;;;;;;4.27;2.90;;;;;;;18.42;51.38;99789.69;5074072;28;20194;-64
2022/12/11 07:02:31;;;;;;;4.13;2.40;;;;;;;18.37;51.34;99792.88;5057404;28;20569;-65
2022/12/11 07:04:57;;;;;;;3.07;2.00;;;;;;;18.37;51.50;99798.59;5072689;28;20440;-65
2022/12/11 07:07:22;;;;;;;3.73;2.50;;;;;;;18.39;51.67;99796.19;5065958;28;20183;-64
2022/12/11 07:09:48;;;;;;;3.33;2.53;;;;;;;18.38;51.15;99794.56;5054426;28;20620;-64
2022/12/11 07:12:13;;;;;;;3.50;2.83;;;;;;;18.40;51.27;99800.69;5054022;28;20686;-64
2022/12/11 07:14:38;;;;;;;3.63;2.87;;;;;;;18.36;51.30;99794.13;5057372;28;20233;-64
2022/12/11 07:17:04;;;;;;;3.93;2.70;;;;;;;18.40;51.25;99797.84;5072094;28;20187;-64
2022/12/11 07:19:29;;;;;;;2.93;2.20;;;;;;;18.40;51.24;99792.13;5074065;28;20171;-65
2022/12/11 07:21:55;;;;;;;4.27;3.03;;;;;;;18.35;51.53;99795.34;5061164;28;20180;-64
2022/12/11 07:24:20;;;;;;;3.90;2.47;;;;;;;18.36;51.57;99801.88;5054289;28;20172;-65
2022/12/11 07:26:46;;;;;;;3.60;2.60;;;;;;;18.38;51.52;99794.56;5065041;28;20284;-64
2022/12/11 07:29:11;;;;;;;2.70;2.37;;;;;;;18.36;51.66;99796.16;5073983;28;20174;-64
2022/12/11 07:31:37;;;;;;;4.00;2.47;;;;;;;18.39;51.23;99798.22;5073506;28;20195;-64
2022/12/11 07:34:04;;;;;;;4.50;2.70;;;;;;;18.40;51.56;99800.69;5057703;28;20229;-65
2022/12/11 07:36:30;;;;;;;3.97;2.60;;;;;;;18.40;51.26;99802.72;5052088;28;20160;-64
2022/12/11 07:38:55;;;;;;;4.20;2.67;;;;;;;18.42;51.17;99803.97;5057826;28;20456;-62
2022/12/11 07:41:21;;;;;;;3.17;1.97;;;;;;;18.45;51.62;99806.06;5076418;28;20199;-62
2022/12/11 07:43:46;;;;;;;4.20;2.77;;;;;;;18.42;51.41;99808.88;5076657;28;20195;-62
2022/12/11 07:46:16;;;;;;;4.87;2.60;;;;;;;18.41;51.37;99802.34;5061397;28;20199;-62
2022/12/11 07:48:42;;;;;;;3.30;2.50;;;;;;;18.43;51.08;99804.81;5055586;28;20175;-61
2022/12/11 07:51:15;;;;;;;3.73;2.50;;;;;;;18.37;51.44;99804.31;5045691;28;20461;-61
2022/12/11 07:53:45;;;;;;;3.57;2.57;;;;;;;18.43;51.24;99814.22;5075213;28;20412;-61
2022/12/11 07:56:10;;;;;;;3.63;2.63;;;;;;;18.40;51.51;99800.69;5072862;28;20426;-61
2022/12/11 07:58:37;;;;;;;3.17;2.30;;;;;;;18.41;51.39;99801.53;5075757;28;20472;-61
2022/12/11 08:01:04;;;;;;;3.13;2.20;;;;;;;18.39;51.55;99812.50;5061975;28;20183;-62
2022/12/11 08:03:30;;;;;;;3.13;2.23;;;;;;;18.35;51.38;99809.63;5062121;28;20936;-61
2022/12/11 08:05:56;;;;;;;3.47;2.47;;;;;;;18.39;51.61;99810.50;5070736;28;20454;-61
2022/12/11 08:08:24;;;;;;;4.20;3.37;;;;;;;18.40;51.45;99811.28;5056128;28;20190;-64
2022/12/11 08:10:50;;;;;;;4.23;2.80;;;;;;;18.44;51.06;99810.13;5058859;28;20204;-62
2022/12/11 08:13:15;;;;;;;3.40;2.50;;;;;;;18.39;51.25;99816.19;5076266;28;20426;-66
2022/12/11 08:15:41;;;;;;;3.60;2.30;;;;;;;18.43;51.26;99814.22;5072645;28;20187;-61
2022/12/11 08:18:06;;;;;;;3.27;2.43;;;;;;;18.42;51.31;99821.13;5076103;28;20186;-62
2022/12/11 08:20:32;;;;;;;3.03;2.10;;;;;;;18.45;51.26;99826.06;5075469;28;20163;-64
2022/12/11 08:22:58;;;;;;;3.77;2.60;;;;;;;18.42;51.28;99823.97;5073808;28;20190;-61
2022/12/11 08:25:23;;;;;;;4.47;2.67;;;;;;;18.41;51.10;99816.63;5057191;28;20430;-62
2022/12/11 08:27:48;;;;;;;4.20;2.90;;;;;;;18.42;51.44;99817.44;5045597;28;20179;-64
2022/12/11 08:30:14;;;;;;;4.00;2.87;;;;;;;18.49;51.16;99815.50;5059437;28;20214;-63
2022/12/11 08:32:40;;;;;;;3.40;2.40;;;;;;;18.46;51.02;99819.13;5036781;28;20195;-61
2022/12/11 08:35:06;;;;;;;4.10;2.70;;;;;;;18.40;51.39;99822.72;5057343;28;20184;-61
2022/12/11 08:37:32;;;;;;;3.13;2.10;;;;;;;18.39;51.20;99819.06;5055565;28;20179;-60
2022/12/11 08:39:58;;;;;;;4.17;3.13;;;;;;;18.43;51.44;99825.66;5057188;28;20199;-61
2022/12/11 08:42:23;;;;;;;3.60;2.63;;;;;;;18.43;51.30;99824.81;5055129;28;20411;-61
2022/12/11 08:44:49;;;;;;;4.80;2.67;;;;;;;18.43;51.33;99817.06;5046635;28;20184;-61
2022/12/11 08:47:14;;;;;;;4.00;2.60;;;;;;;18.46;51.02;99816.25;5055525;28;20167;-61
2022/12/11 08:49:40;;;;;;;5.03;3.33;;;;;;;18.46;51.14;99807.69;5057743;28;20525;-61
2022/12/11 08:52:05;;;;;;;3.67;2.37;;;;;;;18.46;51.12;99807.69;5054887;28;20671;-61
2022/12/11 08:54:30;;;;;;;4.07;3.07;;;;;;;18.43;51.20;99808.50;5056005;28;20184;-61
2022/12/11 08:56:56;;;;;;;2.90;2.40;;;;;;;18.45;51.44;99813.78;5066205;28;20658;-62
2022/12/11 08:59:22;;;;;;;4.40;3.03;;;;;;;18.38;51.28;99806.00;5074139;28;20724;-61
2022/12/11 09:01:47;;;;;;;4.33;2.90;;;;;;;18.45;51.23;99813.78;5062814;28;20188;-62
2022/12/11 09:04:12;;;;;;;3.80;2.90;;;;;;;18.40;51.17;99809.25;5057442;28;20174;-61
2022/12/11 09:06:38;;;;;;;3.83;3.17;;;;;;;18.40;51.60;99802.72;5074969;28;20159;-61
2022/12/11 09:09:03;;;;;;;4.00;2.87;;;;;;;18.44;51.22;99800.72;5056908;28;20166;-61
2022/12/11 09:11:30;;;;;;;3.83;2.90;;;;;;;18.42;51.50;99795.41;5059112;28;20203;-61
2022/12/11 09:13:56;;;;;;;3.70;2.60;;;;;;;18.43;51.55;99790.50;5054706;28;20164;-61
2022/12/11 09:16:23;;;;;;;3.80;2.50;;;;;;;18.45;51.61;99796.66;5061695;28;20480;-61
2022/12/11 09:18:49;;;;;;;4.13;2.83;;;;;;;18.40;51.54;99800.69;5056464;28;20163;-61
2022/12/11 09:21:16;;;;;;;3.80;2.90;;;;;;;18.46;51.20;99796.25;5073594;28;20402;-62
2022/12/11 09:23:42;;;;;;;4.00;2.70;;;;;;;18.49;51.30;99801.19;5073639;28;20401;-62
2022/12/11 09:26:09;;;;;;;4.00;2.70;;;;;;;18.44;51.25;99797.88;5061288;28;20438;-62
2022/12/11 09:28:35;;;;;;;4.90;3.20;;;;;;;18.48;51.05;99798.72;5068732;28;20189;-61
2022/12/11 09:31:01;;;;;;;4.30;2.90;;;;;;;18.43;51.26;99799.91;5067770;28;20470;-61
2022/12/11 09:33:26;;;;;;;5.17;2.90;;;;;;;18.43;51.59;99804.81;5053393;28;20186;-61
2022/12/11 09:35:58;;;;;;;3.97;2.57;;;;;;;18.45;51.22;99799.50;5056674;28;20243;-61
2022/12/11 09:38:24;;;;;;;3.90;2.70;;;;;;;18.48;51.40;99795.88;5053975;28;20170;-61
2022/12/11 09:40:49;;;;;;;4.37;2.80;;;;;;;18.48;51.45;99798.72;5053991;28;20430;-61
2022/12/11 09:43:38;;;;;;;4.30;2.90;;;;;;;18.42;51.54;99794.59;5071222;28;20187;-61
2022/12/11 09:46:05;;;;;;;3.60;2.80;;;;;;;18.54;51.32;99797.16;5074315;28;20309;-61
2022/12/11 09:48:32;;;;;;;3.70;2.30;;;;;;;18.48;51.24;99787.28;5073931;28;20429;-62
2022/12/11 09:50:57;;;;;;;4.40;2.90;;;;;;;18.52;51.18;99783.25;5071229;28;20551;-61
2022/12/11 09:53:26;;;;;;;3.30;2.57;;;;;;;18.49;51.01;99786.06;5054000;28;20885;-61
2022/12/11 09:56:15;;;;;;;3.50;2.80;;;;;;;18.47;51.64;99774.22;5038706;28;20211;-61
2022/12/11 09:59:21;;;;;;;3.63;2.63;;;;;;;18.49;51.20;99771.78;5023025;28;20473;-61
2022/12/11 10:02:10;;;;;;;4.00;2.70;;;;;;;18.47;51.37;99772.16;4993711;28;20924;-62
2022/12/11 10:05:01;;;;;;;3.57;2.60;;;;;;;18.45;51.37;99771.75;5038484;28;20445;-62
2022/12/11 10:07:51;;;;;;;3.57;2.47;;;;;;;18.45;51.15;99760.31;5053971;28;20421;-62
2022/12/11 10:10:40;;;;;;;3.53;2.43;;;;;;;18.41;51.48;99758.66;5034934;28;20482;-61
2022/12/11 10:13:29;;;;;;;4.60;3.10;;;;;;;18.44;51.33;99749.28;5035626;28;20474;-62
2022/12/11 10:16:23;;;;;;;4.27;2.60;;;;;;;18.49;51.24;99746.91;5037481;28;20414;-62
2022/12/11 10:18:49;;;;;;;3.93;2.83;;;;;;;18.49;51.35;99737.47;5053233;28;20418;-61
2022/12/11 10:21:15;;;;;;;3.40;2.50;;;;;;;18.49;51.31;99738.31;5053518;28;20893;-62
2022/12/11 10:23:49;;;;;;;3.50;2.50;;;;;;;18.48;51.25;99735.84;5052577;28;20214;-62
2022/12/11 10:26:19;;;;;;;4.00;2.77;;;;;;;18.52;51.34;99739.56;5036262;28;20398;-62
2022/12/11 10:28:45;;;;;;;3.73;2.63;;;;;;;18.50;51.29;99728.53;5063915;28;20434;-62
2022/12/11 10:31:36;;;;;;;4.50;2.90;;;;;;;18.45;51.25;99728.06;5035015;28;20485;-62
2022/12/11 10:34:03;;;;;;;3.90;2.63;;;;;;;18.44;51.58;99726.41;5037573;28;20207;-62
2022/12/11 10:36:33;;;;;;;4.17;2.73;;;;;;;18.44;51.62;99718.66;5052315;28;20443;-62
2022/12/11 10:38:59;;;;;;;3.50;2.50;;;;;;;18.44;51.54;99712.13;5031954;28;20431;-61
2022/12/11 10:41:38;;;;;;;3.80;2.40;;;;;;;18.45;51.65;99714.59;5033384;28;20415;-62
2022/12/11 10:44:19;;;;;;;3.90;2.80;;;;;;;18.48;51.27;99708.09;5032883;28;20495;-62
2022/12/11 10:46:46;;;;;;;4.27;2.70;;;;;;;18.43;51.54;99705.59;5044069;28;20461;-62
2022/12/11 10:49:21;;;;;;;4.00;2.60;;;;;;;18.51;51.42;99707.28;5053048;28;20831;-62
2022/12/11 10:51:46;;;;;;;5.73;2.87;;;;;;;18.51;51.29;99706.47;5052091;28;20457;-62
2022/12/11 10:54:36;;;;;;;4.50;2.60;;;;;;;18.51;51.29;99706.47;5052703;28;20432;-61
2022/12/11 10:57:03;;;;;;;3.87;2.87;;;;;;;18.46;51.42;99704.78;5039561;28;20172;-62
2022/12/11 10:59:45;;;;;;;3.90;2.60;;;;;;;18.51;51.35;99712.19;5036300;28;20497;-62
2022/12/11 11:02:40;;;;;;;4.33;2.80;;;;;;;18.54;51.12;99702.81;5034563;28;20402;-62
2022/12/11 11:05:34;;;;;;;3.90;2.73;;;;;;;18.54;51.12;99703.66;5034870;28;20492;-62
2022/12/11 11:08:10;;;;;;;3.30;2.47;;;;;;;18.47;51.52;99699.91;5031576;28;20408;-62
2022/12/11 11:10:35;;;;;;;4.10;2.80;;;;;;;18.53;51.16;99699.16;5028762;28;20518;-61
2022/12/11 11:13:01;;;;;;;4.20;2.60;;;;;;;18.52;51.23;99700.34;5032860;28;20418;-62
2022/12/11 11:15:27;;;;;;;4.10;2.97;;;;;;;18.55;51.25;99695.88;5034778;28;20185;-62
2022/12/11 11:18:11;;;;;;;3.37;2.30;;;;;;;18.51;51.25;99693.00;4998541;28;20183;-62
2022/12/11 11:20:41;;;;;;;3.77;2.70;;;;;;;18.52;51.21;99696.69;5001040;28;20779;-62
2022/12/11 11:23:10;;;;;;;3.53;2.60;;;;;;;18.54;51.24;99699.97;4999569;28;20400;-62
2022/12/11 11:25:36;;;;;;;3.90;2.70;;;;;;;18.56;51.28;99698.34;5032610;28;20399;-62
2022/12/11 11:28:03;;;;;;;4.07;2.80;;;;;;;18.51;51.01;99700.78;5049301;28;20449;-62
2022/12/11 11:30:42;;;;;;;3.57;2.37;;;;;;;18.46;51.33;99699.06;5055113;28;20214;-62
2022/12/11 11:33:18;;;;;;;3.17;2.50;;;;;;;18.54;51.99;99700.78;5032026;28;20451;-62
2022/12/11 11:35:52;;;;;;;4.07;2.80;;;;;;;18.51;51.19;99698.72;5016887;28;20425;-61
2022/12/11 11:38:21;;;;;;;3.50;2.40;;;;;;;18.51;51.18;99695.84;5034721;28;20913;-61
2022/12/11 11:41:08;;;;;;;3.43;2.60;;;;;;;18.51;51.18;99693.00;5051936;28;20450;-61
2022/12/11 11:43:43;;;;;;;3.10;2.43;;;;;;;18.52;51.26;99686.06;5054182;28;21220;-61
2022/12/11 11:46:22;;;;;;;3.43;2.60;;;;;;;18.53;50.98;99682.00;5022757;28;20442;-61
2022/12/11 11:49:23;;;;;;;4.37;2.50;;;;;;;18.56;51.25;99680.41;5034268;28;20427;-61